createdAt,value
2019-06-10T00:02:05.863Z,56.85
2019-06-10T00:07:11.825Z,56.91
2019-06-10T00:12:15.864Z,57.59
2019-06-10T00:17:21.408Z,57.59
2019-06-10T00:22:25.453Z,58.87
2019-06-10T00:27:31.172Z,58.94
2019-06-10T00:32:35.246Z,59.17
2019-06-10T00:37:39.023Z,58.99
2019-06-10T00:42:42.943Z,58.64
2019-06-10T00:47:46.712Z,58.87
2019-06-10T00:52:51.644Z,59.77
2019-06-10T00:57:55.506Z,59.99
2019-06-10T01:03:01.096Z,59.53
2019-06-10T01:08:06.589Z,59.53
2019-06-10T01:13:12.250Z,60.66
2019-06-10T01:18:34.134Z,60.90
2019-06-10T01:23:21.983Z,61.26
2019-06-10T01:28:25.712Z,61.65
2019-06-10T01:33:31.703Z,61.46
2019-06-10T01:38:35.263Z,61.23
2019-06-10T01:43:40.784Z,61.46
2019-06-10T01:48:48.131Z,61.77
2019-06-10T01:53:51.266Z,61.44
2019-06-10T01:58:55.448Z,61.55
2019-06-10T02:04:00.867Z,62.02
2019-06-10T02:09:06.550Z,62.62
2019-06-10T02:14:14.401Z,62.75
2019-06-10T02:19:17.465Z,62.88
2019-06-10T02:24:23.354Z,63.02
2019-06-10T02:29:27.360Z,63.21
2019-06-10T02:34:34.067Z,63.57
2019-06-10T02:39:38.962Z,63.60
2019-06-10T02:44:44.485Z,64.08
2019-06-10T02:49:59.023Z,64.55
2019-06-10T02:54:53.858Z,64.08
2019-06-10T02:59:57.660Z,63.93
2019-06-10T03:05:04.632Z,64.48
2019-06-10T03:10:07.255Z,64.68
2019-06-10T03:15:12.584Z,64.76
2019-06-10T03:20:17.832Z,64.56
2019-06-10T03:25:23.326Z,64.23
2019-06-10T03:30:41.201Z,64.51
2019-06-10T03:35:33.116Z,64.60
2019-06-10T03:40:36.881Z,64.28
2019-06-10T03:45:42.591Z,63.89
2019-06-10T03:50:46.637Z,64.45
2019-06-10T03:55:52.524Z,64.56
2019-06-10T04:00:55.964Z,64.71
2019-06-10T04:06:02.134Z,64.61
2019-06-10T04:11:05.423Z,64.45
2019-06-10T04:16:09.301Z,64.48
2019-06-10T04:21:13.152Z,64.46
2019-06-10T04:26:17.806Z,64.12
2019-06-10T04:31:23.742Z,64.75
2019-06-10T04:36:28.151Z,64.75
2019-06-10T04:41:32.760Z,66.34
2019-06-10T04:46:36.669Z,66.37
2019-06-10T04:51:40.589Z,66.75
2019-06-10T04:56:44.516Z,66.64
2019-06-10T05:01:48.288Z,67.31
2019-06-10T05:06:52.667Z,66.52
2019-06-10T05:11:56.574Z,65.68
2019-06-10T05:17:02.180Z,65.16
2019-06-10T05:22:06.112Z,63.69
2019-06-10T05:27:09.882Z,62.76
2019-06-10T05:32:13.676Z,62.76
2019-06-10T05:37:17.444Z,61.54
2019-06-10T05:42:24.596Z,60.79
2019-06-10T05:47:29.205Z,60.22
2019-06-10T05:52:33.822Z,59.16
2019-06-10T05:57:38.268Z,58.22
2019-06-10T06:02:43.266Z,57.33
2019-06-10T06:08:01.336Z,57.28
2019-06-10T06:12:52.966Z,56.97
2019-06-10T06:18:07.225Z,56.64
2019-06-10T06:23:02.772Z,56.71
2019-06-10T06:28:06.925Z,56.81
2019-06-10T06:33:13.345Z,57.00
2019-06-10T06:38:16.316Z,57.01
2019-06-10T06:43:22.092Z,56.80
2019-06-10T06:48:25.671Z,55.82
2019-06-10T06:53:35.285Z,55.33
2019-06-10T06:58:36.901Z,54.81
2019-06-10T07:03:44.646Z,54.66
2019-06-10T07:09:00.348Z,54.04
2019-06-10T07:13:54.909Z,53.82
2019-06-10T07:18:58.665Z,54.43
2019-06-10T07:24:03.217Z,56.08
2019-06-10T07:29:09.333Z,56.22
2019-06-10T07:34:13.249Z,57.42
2019-06-10T07:39:17.088Z,58.56
2019-06-10T07:44:22.627Z,58.15
2019-06-10T07:49:26.364Z,57.71
2019-06-10T07:54:30.206Z,57.71
2019-06-10T07:59:35.344Z,59.04
2019-06-10T08:04:39.988Z,59.57
2019-06-10T08:09:45.756Z,62.36
2019-06-10T08:14:49.767Z,64.58
2019-06-10T08:19:54.439Z,63.60
2019-06-10T08:24:58.257Z,62.86
2019-06-10T08:30:15.607Z,61.73
2019-06-10T08:35:08.498Z,60.55
2019-06-10T08:40:12.517Z,59.59
2019-06-10T08:45:16.576Z,58.47
2019-06-10T08:50:22.338Z,58.43
2019-06-10T08:55:26.510Z,56.72
2019-06-10T09:00:33.227Z,55.79
2019-06-10T09:05:38.762Z,52.51
2019-06-10T09:10:45.709Z,52.70
2019-06-10T09:16:06.000Z,51.18
2019-06-10T09:20:58.265Z,50.68
2019-06-10T09:26:03.586Z,49.81
2019-06-10T09:31:07.696Z,48.45
2019-06-10T09:36:12.527Z,47.26
2019-06-10T09:41:16.521Z,48.61
2019-06-10T09:46:23.278Z,48.15
2019-06-10T09:51:27.206Z,47.97
2019-06-10T09:56:33.119Z,47.84
2019-06-10T10:01:36.988Z,47.35
2019-06-10T10:06:44.811Z,46.95
2019-06-10T10:11:48.969Z,45.17
2019-06-10T10:16:59.825Z,43.59
2019-06-10T10:21:59.215Z,43.12
2019-06-10T10:27:08.369Z,41.95
2019-06-10T10:32:08.573Z,41.59
2019-06-10T10:37:12.614Z,41.29
2019-06-10T10:42:16.452Z,39.06
2019-06-10T10:47:20.236Z,40.00
2019-06-10T10:52:24.085Z,38.79
2019-06-10T10:57:28.281Z,40.22
2019-06-10T11:02:32.338Z,39.85
2019-06-10T11:07:38.681Z,40.77
2019-06-10T11:12:46.920Z,40.26
2019-06-10T11:17:54.911Z,39.48
2019-06-10T11:22:57.994Z,39.69
2019-06-10T11:28:04.019Z,39.18
2019-06-10T11:33:08.148Z,39.38
2019-06-10T11:38:12.836Z,38.48
2019-06-10T11:43:16.748Z,39.06
2019-06-10T11:48:20.676Z,38.90
2019-06-10T11:53:24.588Z,39.40
2019-06-10T11:58:28.563Z,39.23
2019-06-10T12:03:32.793Z,38.87
2019-06-10T12:08:36.995Z,38.97
2019-06-10T12:13:42.817Z,38.95
2019-06-10T12:18:46.735Z,38.70
2019-06-10T12:23:56.761Z,38.38
2019-06-10T12:28:59.336Z,40.49
2019-06-10T12:34:03.289Z,40.53
2019-06-10T12:39:10.911Z,40.72
2019-06-10T12:44:14.798Z,41.31
2019-06-10T12:49:18.808Z,41.02
2019-06-10T12:54:22.744Z,40.98
2019-06-10T12:59:27.127Z,40.82
2019-06-10T13:04:31.384Z,40.83
2019-06-10T13:09:43.311Z,40.57
2019-06-10T13:14:46.628Z,39.74
2019-06-10T13:19:50.483Z,39.58
2019-06-10T13:24:54.265Z,39.83
2019-06-10T13:29:58.327Z,38.68
2019-06-10T13:35:03.638Z,37.26
2019-06-10T13:40:12.334Z,38.16
2019-06-10T13:45:14.828Z,36.85
2019-06-10T13:50:22.149Z,36.79
2019-06-10T13:55:26.012Z,36.67
2019-06-10T14:00:40.825Z,36.02
2019-06-10T14:05:36.674Z,35.83
2019-06-10T14:10:42.895Z,35.20
2019-06-10T14:15:46.079Z,35.03
2019-06-10T14:20:52.826Z,34.32
2019-06-10T14:25:56.050Z,34.59
2019-06-10T14:31:02.677Z,35.17
2019-06-10T14:36:06.941Z,34.30
2019-06-10T14:41:12.203Z,32.38
2019-06-10T14:46:17.682Z,32.44
2019-06-10T14:51:22.949Z,33.08
2019-06-10T14:56:26.943Z,31.98
2019-06-10T15:01:32.200Z,33.12
2019-06-10T15:06:36.269Z,32.81
2019-06-10T15:11:42.650Z,33.07
2019-06-10T15:16:45.869Z,33.01
2019-06-10T15:21:49.647Z,33.08
2019-06-10T15:27:08.710Z,33.27
2019-06-10T15:32:10.509Z,33.44
2019-06-10T15:37:04.893Z,34.13
2019-06-10T15:42:09.468Z,34.66
2019-06-10T15:47:17.047Z,35.31
2019-06-10T15:52:20.657Z,35.69
2019-06-10T15:57:38.649Z,36.37
2019-06-10T16:02:30.385Z,37.25
2019-06-10T16:07:35.899Z,38.20
2019-06-10T16:12:39.997Z,38.62
2019-06-10T16:17:44.227Z,38.82
2019-06-10T16:22:48.440Z,39.35
2019-06-10T16:27:54.414Z,40.10
2019-06-10T16:32:57.755Z,40.37
2019-06-10T16:38:02.903Z,40.81
2019-06-10T16:43:06.744Z,41.12
2019-06-10T16:48:12.987Z,41.56
2019-06-10T16:53:45.269Z,41.89
2019-06-10T16:58:49.351Z,43.28
2019-06-10T17:03:53.181Z,44.20
2019-06-10T17:08:56.968Z,45.52
2019-06-10T17:14:03.107Z,45.76
2019-06-10T17:19:07.104Z,46.51
2019-06-10T17:24:12.789Z,46.88
2019-06-10T17:29:16.569Z,47.32
2019-06-10T17:34:22.977Z,47.28
2019-06-10T17:39:27.035Z,47.51
2019-06-10T17:44:32.492Z,47.92
2019-06-10T17:49:36.513Z,48.44
2019-06-10T17:54:40.406Z,48.56
2019-06-10T17:59:44.778Z,49.16
2019-06-10T18:04:48.562Z,50.97
2019-06-10T18:09:53.021Z,52.51
2019-06-10T18:14:57.090Z,56.32
2019-06-10T18:20:02.833Z,58.33
2019-06-10T18:25:08.304Z,59.18
2019-06-10T18:30:14.441Z,60.88
2019-06-10T18:35:19.480Z,59.62
2019-06-10T18:40:24.100Z,59.21
2019-06-10T18:45:29.718Z,59.54
2019-06-10T18:50:36.179Z,60.17
2019-06-10T18:55:40.755Z,59.79
2019-06-10T19:00:59.615Z,60.94
2019-06-10T19:05:52.799Z,61.60
2019-06-10T19:10:56.230Z,61.42
2019-06-10T19:16:02.211Z,61.25
2019-06-10T19:21:08.630Z,61.94
2019-06-10T19:26:13.395Z,62.32
2019-06-10T19:31:17.222Z,62.97
2019-06-10T19:36:23.015Z,62.97
2019-06-10T19:41:26.585Z,62.61
2019-06-10T19:46:32.423Z,62.85
2019-06-10T19:51:37.306Z,62.50
2019-06-10T19:56:41.685Z,62.53
2019-06-10T20:01:48.234Z,62.72
2019-06-10T20:06:53.788Z,62.68
2019-06-10T20:11:57.530Z,62.45
2019-06-10T20:17:03.171Z,62.56
2019-06-10T20:22:07.009Z,63.07
2019-06-10T20:27:10.776Z,63.21
2019-06-10T20:32:15.081Z,63.36
2019-06-10T20:37:18.871Z,63.92
2019-06-10T20:42:23.175Z,64.34
2019-06-10T20:47:27.022Z,63.88
2019-06-10T20:52:32.610Z,63.31
2019-06-10T20:57:49.938Z,62.78
2019-06-10T21:02:45.493Z,62.91
2019-06-10T21:07:51.745Z,64.14
2019-06-10T21:12:54.483Z,64.30
2019-06-10T21:17:58.346Z,64.75
2019-06-10T21:23:03.150Z,64.89
2019-06-10T21:28:07.665Z,64.73
2019-06-10T21:33:13.016Z,64.52
2019-06-10T21:38:16.779Z,64.26
2019-06-10T21:43:22.337Z,63.65
2019-06-10T21:48:26.307Z,63.67
2019-06-10T21:53:30.160Z,64.13
2019-06-10T21:58:33.933Z,64.00
2019-06-10T22:03:37.716Z,63.83
2019-06-10T22:08:42.521Z,63.91
2019-06-10T22:13:48.110Z,64.17
2019-06-10T22:18:52.921Z,64.07
2019-06-10T22:23:57.107Z,64.25
2019-06-10T22:29:01.348Z,64.86
2019-06-10T22:34:05.366Z,64.95
2019-06-10T22:39:12.357Z,65.29
2019-06-10T22:44:15.182Z,65.09
2019-06-10T22:49:18.978Z,65.09
2019-06-10T22:54:22.764Z,65.04
2019-06-10T22:59:26.559Z,64.90
2019-06-10T23:04:32.998Z,64.96
2019-06-10T23:09:35.917Z,65.08
2019-06-10T23:14:39.706Z,65.23
2019-06-10T23:19:43.536Z,65.22
2019-06-10T23:24:47.448Z,65.62
2019-06-10T23:29:54.003Z,65.95
2019-06-10T23:34:58.179Z,65.78
2019-06-10T23:40:04.462Z,65.85
2019-06-10T23:45:09.443Z,66.05
2019-06-10T23:50:13.468Z,66.84
2019-06-10T23:55:17.562Z,66.84
